createdAt,value
2023-01-21T00:00:13.898Z,10.67
2023-01-21T00:02:41.228Z,12.97
2023-01-21T00:05:08.577Z,9.43
2023-01-21T00:07:35.704Z,15.60
2023-01-21T00:10:02.887Z,11.47
2023-01-21T00:12:30.074Z,11.30
2023-01-21T00:14:57.223Z,11.40
2023-01-21T00:17:24.420Z,16.20
2023-01-21T00:19:51.571Z,15.50
2023-01-21T00:22:18.801Z,12.83
2023-01-21T00:24:45.989Z,14.37
2023-01-21T00:27:13.128Z,9.63
2023-01-21T00:29:40.267Z,15.70
2023-01-21T00:32:07.428Z,12.10
2023-01-21T00:34:34.557Z,14.73
2023-01-21T00:37:01.709Z,12.07
2023-01-21T00:39:28.963Z,11.93
2023-01-21T00:41:56.172Z,10.63
2023-01-21T00:44:23.410Z,14.13
2023-01-21T00:46:50.585Z,15.47
2023-01-21T00:49:17.752Z,13.97
2023-01-21T00:51:44.911Z,12.30
2023-01-21T00:54:12.126Z,12.83
2023-01-21T00:56:39.548Z,11.20
2023-01-21T00:59:06.849Z,12.70
2023-01-21T01:01:34.624Z,11.90
2023-01-21T01:04:01.946Z,12.57
2023-01-21T01:06:29.074Z,12.00
2023-01-21T01:08:58.506Z,12.70
2023-01-21T01:11:26.826Z,13.90
2023-01-21T01:13:54.381Z,12.73
2023-01-21T01:16:21.626Z,10.57
2023-01-21T01:18:48.988Z,13.53
2023-01-21T01:21:17.095Z,10.73
2023-01-21T01:23:44.495Z,11.27
2023-01-21T01:26:12.274Z,10.73
2023-01-21T01:28:39.504Z,10.17
2023-01-21T01:31:07.547Z,9.47
2023-01-21T01:33:35.057Z,12.83
2023-01-21T01:36:02.987Z,15.57
2023-01-21T01:38:30.195Z,13.97
2023-01-21T01:40:57.352Z,12.13
2023-01-21T01:43:42.940Z,14.20
2023-01-21T01:46:10.084Z,10.27
2023-01-21T01:48:37.239Z,12.10
2023-01-21T01:51:04.623Z,10.17
2023-01-21T01:53:32.194Z,7.53
2023-01-21T01:55:59.529Z,10.87
2023-01-21T01:58:26.726Z,12.73
2023-01-21T02:00:53.880Z,8.73
2023-01-21T02:03:39.558Z,8.57
2023-01-21T02:06:06.801Z,5.33
2023-01-21T02:08:36.186Z,7.70
2023-01-21T02:11:03.570Z,7.87
2023-01-21T02:13:31.276Z,11.87
2023-01-21T02:16:27.956Z,8.90
2023-01-21T02:19:19.987Z,9.93
2023-01-21T02:21:50.195Z,12.57
2023-01-21T02:24:35.890Z,12.93
2023-01-21T02:27:03.118Z,14.90
2023-01-21T02:29:36.023Z,13.50
2023-01-21T02:32:15.179Z,14.83
2023-01-21T02:34:45.070Z,16.00
2023-01-21T02:37:17.266Z,11.83
2023-01-21T02:50:23.687Z,9.03
2023-01-21T02:53:00.447Z,10.20
2023-01-21T02:55:29.406Z,9.33
2023-01-21T02:57:57.741Z,11.70
2023-01-21T03:00:29.291Z,10.13
2023-01-21T03:03:15.162Z,9.77
2023-01-21T03:05:49.324Z,11.00
2023-01-21T03:08:16.454Z,11.33
2023-01-21T03:10:44.744Z,11.20
2023-01-21T03:13:14.996Z,10.43
2023-01-21T03:16:06.012Z,10.20
2023-01-21T03:18:33.227Z,10.67
2023-01-21T03:21:04.384Z,10.27
2023-01-21T03:23:32.919Z,11.40
2023-01-21T03:26:00.112Z,9.80
2023-01-21T03:28:27.834Z,11.10
2023-01-21T03:31:01.764Z,10.07
2023-01-21T03:33:28.991Z,9.80
2023-01-21T03:35:56.136Z,24.17
2023-01-21T03:38:23.918Z,10.20
2023-01-21T03:40:54.178Z,11.00
2023-01-21T03:43:21.391Z,8.27
2023-01-21T03:46:00.743Z,9.60
2023-01-21T03:48:40.212Z,12.33
2023-01-21T03:51:08.317Z,11.23
2023-01-21T03:53:35.545Z,14.83
2023-01-21T03:56:02.752Z,13.87
2023-01-21T03:58:29.948Z,12.37
2023-01-21T04:00:57.646Z,13.07
2023-01-21T04:03:24.803Z,14.70
2023-01-21T04:05:51.994Z,16.10
2023-01-21T04:08:19.140Z,14.23
2023-01-21T04:10:46.263Z,11.87
2023-01-21T04:13:13.433Z,13.03
2023-01-21T04:15:40.642Z,11.73
2023-01-21T04:18:07.774Z,6.03
2023-01-21T04:20:34.945Z,4.80
2023-01-21T04:23:02.072Z,10.33
2023-01-21T04:25:29.208Z,7.37
2023-01-21T04:27:56.374Z,8.80
2023-01-21T04:30:23.523Z,7.93
2023-01-21T04:32:50.734Z,5.10
2023-01-21T04:35:17.910Z,6.33
2023-01-21T04:37:45.033Z,5.73
2023-01-21T04:40:12.740Z,11.50
2023-01-21T04:42:39.901Z,26.13
2023-01-21T04:45:07.444Z,6.73
2023-01-21T04:47:34.587Z,7.67
2023-01-21T04:50:04.701Z,6.93
2023-01-21T04:52:31.866Z,6.87
2023-01-21T04:54:59.011Z,7.37
2023-01-21T04:57:26.202Z,6.60
2023-01-21T04:59:53.332Z,6.43
2023-01-21T05:02:20.565Z,8.07
2023-01-21T05:04:47.774Z,6.80
2023-01-21T05:07:14.963Z,6.80
2023-01-21T05:09:42.299Z,6.43
2023-01-21T05:12:09.656Z,4.23
2023-01-21T05:14:36.823Z,12.17
2023-01-21T05:17:04.061Z,7.77
2023-01-21T05:19:31.361Z,6.57
2023-01-21T05:21:58.512Z,5.90
2023-01-21T05:24:25.708Z,9.87
2023-01-21T05:26:52.991Z,9.53
2023-01-21T05:29:20.190Z,6.00
2023-01-21T05:31:47.328Z,5.47
2023-01-21T05:34:14.541Z,5.03
2023-01-21T05:36:41.705Z,5.50
2023-01-21T05:39:08.837Z,4.27
2023-01-21T05:41:36.078Z,3.13
2023-01-21T05:44:03.224Z,4.80
2023-01-21T05:46:30.353Z,5.63
2023-01-21T05:48:57.515Z,11.70
2023-01-21T05:51:24.672Z,12.27
2023-01-21T05:53:51.909Z,9.23
2023-01-21T05:56:19.094Z,10.03
2023-01-21T05:58:46.252Z,7.60
2023-01-21T06:01:13.391Z,5.53
2023-01-21T06:03:40.583Z,4.87
2023-01-21T06:06:54.504Z,8.40
2023-01-21T06:09:21.678Z,9.60
2023-01-21T06:11:48.854Z,8.30
2023-01-21T06:14:16.016Z,11.37
2023-01-21T06:16:43.178Z,6.03
2023-01-21T06:19:10.348Z,10.30
2023-01-21T06:21:37.495Z,6.93
2023-01-21T06:24:04.732Z,3.80
2023-01-21T06:26:31.961Z,9.53
2023-01-21T06:28:59.105Z,7.00
2023-01-21T06:31:26.394Z,20.43
2023-01-21T06:33:53.584Z,24.33
2023-01-21T06:36:20.730Z,14.30
2023-01-21T06:38:47.893Z,15.27
2023-01-21T06:41:15.033Z,12.97
2023-01-21T06:43:42.182Z,14.37
2023-01-21T06:46:10.641Z,11.43
2023-01-21T06:48:37.810Z,14.07
2023-01-21T06:51:05.224Z,10.40
2023-01-21T06:53:32.433Z,15.23
2023-01-21T06:55:59.572Z,14.03
2023-01-21T06:58:26.724Z,31.57
2023-01-21T07:00:56.953Z,60.03
2023-01-21T07:03:24.164Z,23.30
2023-01-21T07:05:51.365Z,16.17
2023-01-21T07:08:18.534Z,18.33
2023-01-21T07:10:47.688Z,17.60
2023-01-21T07:13:14.982Z,15.27
2023-01-21T07:15:42.198Z,12.13
2023-01-21T07:18:09.379Z,8.63
2023-01-21T07:20:36.717Z,8.17
2023-01-21T07:23:03.910Z,9.60
2023-01-21T07:25:32.389Z,3.90
2023-01-21T07:27:59.573Z,6.00
2023-01-21T07:30:26.779Z,10.00
2023-01-21T07:32:53.936Z,9.03
2023-01-21T07:35:21.083Z,7.77
2023-01-21T07:37:48.269Z,35.57
2023-01-21T07:40:15.513Z,42.00
2023-01-21T07:42:42.677Z,34.23
2023-01-21T07:45:10.016Z,39.70
2023-01-21T07:47:37.172Z,17.70
2023-01-21T07:50:08.531Z,16.47
2023-01-21T07:52:35.785Z,38.47
2023-01-21T07:55:02.985Z,53.53
2023-01-21T07:57:30.121Z,37.70
2023-01-21T07:59:57.340Z,18.70
2023-01-21T08:02:24.554Z,13.20
2023-01-21T08:04:51.747Z,20.47
2023-01-21T08:07:18.916Z,10.07
2023-01-21T08:09:46.047Z,15.20
2023-01-21T08:12:13.200Z,9.63
2023-01-21T08:14:40.523Z,8.83
2023-01-21T08:17:07.698Z,12.20
2023-01-21T08:19:34.836Z,16.27
2023-01-21T08:22:02.047Z,6.50
2023-01-21T08:24:29.238Z,5.33
2023-01-21T08:26:59.969Z,5.40
2023-01-21T08:29:27.362Z,7.87
2023-01-21T08:31:54.706Z,11.50
2023-01-21T08:34:22.041Z,16.43
2023-01-21T08:36:49.216Z,15.20
2023-01-21T08:39:16.591Z,12.63
2023-01-21T08:41:44.499Z,7.63
2023-01-21T08:44:11.685Z,5.50
2023-01-21T08:46:38.831Z,5.73
2023-01-21T08:49:06.776Z,6.87
2023-01-21T08:51:33.948Z,9.57
2023-01-21T08:54:01.128Z,6.67
2023-01-21T08:56:28.281Z,25.03
2023-01-21T08:58:56.375Z,18.07
2023-01-21T09:01:24.751Z,14.70
2023-01-21T09:03:55.930Z,18.93
2023-01-21T09:06:23.112Z,31.97
2023-01-21T09:08:50.306Z,31.27
2023-01-21T09:11:17.481Z,25.83
2023-01-21T09:13:44.898Z,24.80
2023-01-21T09:16:16.126Z,18.90
2023-01-21T09:18:43.467Z,12.23
2023-01-21T09:21:10.667Z,18.37
2023-01-21T09:23:37.998Z,7.60
2023-01-21T09:26:06.156Z,8.27
2023-01-21T09:28:37.238Z,14.27
2023-01-21T09:31:08.625Z,18.33
2023-01-21T09:33:36.383Z,13.27
2023-01-21T09:36:04.160Z,16.57
2023-01-21T09:38:31.334Z,9.23
2023-01-21T09:41:00.040Z,13.90
2023-01-21T09:43:34.274Z,11.20
2023-01-21T09:46:03.913Z,11.43
2023-01-21T09:48:32.644Z,10.73
2023-01-21T09:51:00.280Z,35.33
2023-01-21T09:53:28.743Z,12.57
2023-01-21T09:55:55.896Z,17.20
2023-01-21T09:58:35.249Z,11.07
2023-01-21T10:01:11.577Z,14.83
2023-01-21T10:03:38.857Z,10.90
2023-01-21T10:06:21.069Z,11.40
2023-01-21T10:09:03.278Z,9.60
2023-01-21T10:11:33.177Z,5.70
2023-01-21T10:14:09.211Z,7.90
2023-01-21T10:16:36.368Z,5.10
2023-01-21T10:19:04.009Z,6.20
2023-01-21T10:21:36.171Z,7.47
2023-01-21T10:24:16.202Z,5.17
2023-01-21T10:26:43.800Z,6.67
2023-01-21T10:29:14.955Z,9.17
2023-01-21T10:31:42.208Z,7.60
2023-01-21T10:34:19.022Z,4.43
2023-01-21T10:36:58.089Z,8.27
2023-01-21T10:39:28.314Z,8.40
2023-01-21T10:42:15.703Z,9.30
2023-01-21T10:44:54.823Z,12.57
2023-01-21T10:47:24.837Z,17.23
2023-01-21T10:50:01.289Z,13.00
2023-01-21T10:52:40.819Z,22.27
2023-01-21T10:55:16.486Z,14.17
2023-01-21T10:58:03.204Z,15.80
2023-01-21T11:00:32.602Z,17.03
2023-01-21T11:03:01.009Z,21.00
2023-01-21T11:05:28.160Z,26.90
2023-01-21T11:07:55.355Z,12.77
2023-01-21T11:10:26.244Z,16.70
2023-01-21T11:12:56.543Z,13.53
2023-01-21T11:15:23.952Z,26.80
2023-01-21T11:17:53.788Z,29.47
2023-01-21T11:20:24.168Z,19.60
2023-01-21T11:22:51.417Z,17.57
2023-01-21T11:25:38.159Z,16.87
2023-01-21T11:28:05.779Z,17.60
2023-01-21T11:30:49.998Z,17.23
2023-01-21T11:33:18.029Z,14.60
2023-01-21T11:35:45.191Z,6.70
2023-01-21T11:38:30.548Z,9.63
2023-01-21T11:41:25.058Z,11.47
2023-01-21T11:43:53.259Z,8.37
2023-01-21T11:46:28.783Z,10.50
2023-01-21T11:48:56.936Z,8.90
2023-01-21T11:51:24.168Z,7.17
2023-01-21T11:54:05.298Z,10.60
2023-01-21T11:56:32.427Z,11.00
2023-01-21T11:58:59.580Z,17.43
2023-01-21T12:01:26.729Z,10.03
2023-01-21T12:03:54.735Z,10.03
2023-01-21T12:06:23.203Z,12.47
2023-01-21T12:08:50.723Z,7.80
2023-01-21T12:11:24.277Z,14.53
2023-01-21T12:14:04.489Z,16.60
2023-01-21T12:16:32.391Z,20.53
2023-01-21T12:18:59.566Z,16.80
2023-01-21T12:21:39.068Z,16.67
2023-01-21T12:24:24.280Z,11.57
2023-01-21T12:26:55.321Z,11.33
2023-01-21T12:29:34.657Z,13.57
2023-01-21T12:32:22.212Z,13.07
2023-01-21T12:34:55.425Z,16.47
2023-01-21T12:37:22.648Z,19.80
2023-01-21T12:39:49.856Z,18.60
2023-01-21T12:42:16.993Z,12.57
2023-01-21T12:44:47.083Z,13.43
2023-01-21T12:47:25.038Z,35.90
2023-01-21T12:50:04.605Z,17.30
2023-01-21T12:52:39.699Z,11.00
2023-01-21T12:55:27.430Z,14.80
2023-01-21T12:57:58.996Z,13.43
2023-01-21T13:00:27.043Z,20.97
2023-01-21T13:02:56.671Z,16.63
2023-01-21T13:05:29.944Z,21.20
2023-01-21T13:08:04.350Z,14.60
2023-01-21T13:10:34.303Z,13.47
2023-01-21T13:13:21.725Z,13.23
2023-01-21T13:15:50.061Z,8.90
2023-01-21T13:18:18.221Z,8.10
2023-01-21T13:20:50.676Z,8.53
2023-01-21T13:23:38.060Z,8.40
2023-01-21T13:26:05.283Z,8.27
2023-01-21T13:28:52.670Z,7.33
2023-01-21T13:31:19.918Z,10.97
2023-01-21T13:34:19.397Z,16.77
2023-01-21T13:36:49.416Z,13.47
2023-01-21T13:39:16.546Z,16.03
2023-01-21T13:41:43.709Z,12.70
2023-01-21T13:44:16.703Z,13.30
2023-01-21T13:46:55.066Z,17.10
2023-01-21T13:49:37.623Z,22.50
2023-01-21T13:52:15.933Z,24.97
2023-01-21T13:54:49.355Z,19.77
2023-01-21T13:57:16.553Z,30.40
2023-01-21T13:59:46.260Z,34.87
2023-01-21T14:02:13.500Z,44.53
2023-01-21T14:04:51.818Z,58.93
2023-01-21T14:07:21.807Z,68.97
2023-01-21T14:10:09.025Z,59.43
2023-01-21T14:12:51.468Z,62.60
2023-01-21T14:15:18.817Z,59.97
2023-01-21T14:17:46.124Z,75.90
2023-01-21T14:20:31.239Z,61.47
2023-01-21T14:23:04.452Z,61.93
2023-01-21T14:25:46.511Z,63.90
2023-01-21T14:28:21.528Z,45.27
2023-01-21T14:31:07.272Z,41.73
2023-01-21T14:33:44.153Z,40.00
2023-01-21T14:36:31.591Z,33.97
2023-01-21T14:39:07.988Z,31.30
2023-01-21T14:41:53.680Z,24.93
2023-01-21T14:44:39.648Z,23.10
2023-01-21T14:47:25.089Z,25.60
2023-01-21T14:49:53.129Z,22.40
2023-01-21T14:52:21.160Z,24.67
2023-01-21T14:54:48.356Z,24.83
2023-01-21T14:57:22.749Z,32.90
2023-01-21T14:59:49.965Z,36.53
2023-01-21T15:02:40.703Z,44.93
2023-01-21T15:05:09.512Z,63.60
2023-01-21T15:07:38.973Z,61.73
2023-01-21T15:10:29.297Z,54.67
2023-01-21T15:12:56.899Z,70.50
2023-01-21T15:15:27.096Z,81.77
2023-01-21T15:17:54.274Z,94.90
2023-01-21T15:20:40.173Z,98.80
2023-01-21T15:23:18.513Z,103.77
2023-01-21T15:26:04.201Z,112.27
2023-01-21T15:28:52.103Z,107.00
2023-01-21T15:31:23.333Z,98.90
2023-01-21T15:33:53.034Z,97.20
2023-01-21T15:36:21.576Z,94.73
2023-01-21T15:38:49.660Z,133.60
2023-01-21T15:41:28.851Z,126.47
2023-01-21T15:44:07.694Z,99.70
2023-01-21T15:46:53.652Z,89.67
2023-01-21T15:49:39.518Z,85.30
2023-01-21T15:52:25.437Z,77.50
2023-01-21T15:55:11.695Z,78.37
2023-01-21T15:57:57.713Z,61.60
2023-01-21T16:00:38.922Z,56.87
2023-01-21T16:03:12.464Z,58.80
2023-01-21T16:05:39.688Z,61.10
2023-01-21T16:08:22.106Z,65.73
2023-01-21T16:11:01.490Z,176.67
2023-01-21T16:13:32.859Z,112.80
2023-01-21T16:16:06.043Z,157.23
2023-01-21T16:18:33.349Z,89.47
2023-01-21T16:21:00.537Z,60.77
2023-01-21T16:23:28.001Z,60.90
2023-01-21T16:25:55.186Z,61.60
2023-01-21T16:28:22.469Z,161.77
2023-01-21T16:30:53.944Z,110.17
2023-01-21T16:33:21.162Z,209.90
2023-01-21T16:35:58.202Z,119.30
2023-01-21T16:38:26.172Z,117.70
2023-01-21T16:41:08.678Z,97.47
2023-01-21T16:43:36.293Z,50.63
2023-01-21T16:46:04.718Z,38.70
2023-01-21T16:48:32.520Z,35.60
2023-01-21T16:50:59.907Z,29.83
2023-01-21T16:53:27.125Z,28.77
2023-01-21T16:55:57.914Z,37.40
2023-01-21T16:58:26.742Z,30.77
2023-01-21T17:01:09.218Z,29.67
2023-01-21T17:03:36.484Z,24.67
2023-01-21T17:06:08.546Z,26.87
2023-01-21T17:08:36.292Z,26.80
2023-01-21T17:11:04.345Z,35.47
2023-01-21T17:13:31.635Z,36.90
2023-01-21T17:16:00.880Z,43.23
2023-01-21T17:18:30.943Z,46.07
2023-01-21T17:21:02.371Z,53.07
2023-01-21T17:23:34.371Z,71.63
2023-01-21T17:26:03.585Z,80.23
2023-01-21T17:28:38.978Z,67.97
2023-01-21T17:31:21.147Z,60.50
2023-01-21T17:33:54.328Z,67.00
2023-01-21T17:36:21.475Z,67.23
2023-01-21T17:38:48.837Z,69.17
2023-01-21T17:41:24.212Z,67.83
2023-01-21T17:43:51.541Z,56.90
2023-01-21T17:46:22.961Z,41.73
2023-01-21T17:48:51.198Z,36.73
2023-01-21T17:51:23.264Z,56.33
2023-01-21T17:53:52.644Z,92.93
2023-01-21T17:56:38.819Z,144.53
2023-01-21T17:59:26.272Z,160.67
2023-01-21T18:01:53.725Z,129.83
2023-01-21T18:04:21.259Z,135.27
2023-01-21T18:06:50.769Z,132.83
2023-01-21T18:09:19.583Z,134.57
2023-01-21T18:11:49.707Z,101.93
2023-01-21T18:14:18.034Z,64.97
2023-01-21T18:16:45.537Z,51.97
2023-01-21T18:19:29.442Z,43.07
2023-01-21T18:21:56.800Z,40.40
2023-01-21T18:24:24.125Z,22.33
2023-01-21T18:26:51.386Z,25.17
2023-01-21T18:29:19.416Z,31.90
2023-01-21T18:31:48.810Z,28.30
2023-01-21T18:34:16.058Z,30.27
2023-01-21T18:36:43.238Z,32.07
2023-01-21T18:39:19.900Z,31.60
2023-01-21T18:41:47.056Z,35.40
2023-01-21T18:44:14.415Z,31.27
2023-01-21T18:46:43.220Z,32.37
2023-01-21T18:49:16.918Z,27.80
2023-01-21T18:51:44.360Z,27.33
2023-01-21T18:54:12.017Z,44.37
2023-01-21T18:56:40.204Z,41.17
2023-01-21T18:59:11.982Z,44.00
2023-01-21T19:01:39.192Z,71.13
2023-01-21T19:04:09.522Z,38.47
2023-01-21T19:06:37.057Z,45.57
2023-01-21T19:09:04.405Z,33.90
2023-01-21T19:11:31.557Z,29.13
2023-01-21T19:13:58.759Z,37.70
2023-01-21T19:16:25.996Z,36.63
2023-01-21T19:18:53.233Z,33.60
2023-01-21T19:21:20.480Z,38.33
2023-01-21T19:23:47.725Z,38.07
2023-01-21T19:26:14.872Z,36.93
2023-01-21T19:28:42.300Z,29.53
2023-01-21T19:31:09.555Z,38.50
2023-01-21T19:33:36.812Z,33.43
2023-01-21T19:36:04.715Z,70.30
2023-01-21T19:38:31.866Z,60.97
2023-01-21T19:40:59.006Z,50.70
2023-01-21T19:43:26.351Z,50.80
2023-01-21T19:45:53.559Z,57.27
2023-01-21T19:48:21.267Z,56.90
2023-01-21T19:50:48.553Z,65.20
2023-01-21T19:53:16.414Z,66.30
2023-01-21T19:55:44.032Z,72.90
2023-01-21T19:58:20.879Z,87.37
2023-01-21T20:00:49.230Z,87.57
2023-01-21T20:03:17.104Z,83.67
2023-01-21T20:05:44.357Z,83.30
2023-01-21T20:08:16.161Z,75.23
2023-01-21T20:10:43.866Z,81.17
2023-01-21T20:13:14.109Z,80.73
2023-01-21T20:15:41.406Z,78.07
2023-01-21T20:18:10.767Z,75.17
2023-01-21T20:20:37.946Z,64.93
2023-01-21T20:23:06.729Z,54.97
2023-01-21T20:25:37.813Z,48.23
2023-01-21T20:28:09.109Z,52.60
2023-01-21T20:30:36.320Z,50.70
2023-01-21T20:33:03.520Z,54.53
2023-01-21T20:35:30.743Z,41.40
2023-01-21T20:37:58.940Z,42.47
2023-01-21T20:40:27.006Z,47.03
2023-01-21T20:42:54.466Z,42.93
2023-01-21T20:45:22.784Z,73.77
2023-01-21T20:47:51.019Z,83.83
2023-01-21T20:50:19.357Z,107.20
2023-01-21T20:52:46.669Z,98.03
2023-01-21T20:55:14.503Z,113.03
2023-01-21T20:57:41.899Z,169.40
2023-01-21T21:00:14.076Z,103.90
2023-01-21T21:02:41.317Z,122.27
2023-01-21T21:05:08.703Z,219.23
2023-01-21T21:07:35.839Z,123.10
2023-01-21T21:10:03.022Z,125.37
2023-01-21T21:12:30.263Z,110.33
2023-01-21T21:14:57.484Z,76.70
2023-01-21T21:17:24.652Z,83.10
2023-01-21T21:19:51.806Z,107.70
2023-01-21T21:22:18.996Z,88.17
2023-01-21T21:24:46.207Z,317.10
2023-01-21T21:27:13.433Z,82.00
2023-01-21T21:29:40.695Z,129.70
2023-01-21T21:32:12.080Z,186.57
2023-01-21T21:34:39.523Z,220.57
2023-01-21T21:37:06.945Z,196.37
2023-01-21T21:39:34.086Z,108.17
2023-01-21T21:42:19.705Z,62.40
2023-01-21T21:44:46.837Z,60.30
2023-01-21T21:47:32.591Z,74.10
2023-01-21T21:49:59.738Z,223.70
2023-01-21T21:52:26.935Z,500.73
2023-01-21T21:54:54.795Z,282.87
2023-01-21T21:57:21.941Z,270.83
2023-01-21T21:59:49.096Z,318.63
2023-01-21T22:02:16.327Z,166.47
2023-01-21T22:04:43.539Z,82.77
2023-01-21T22:07:10.726Z,100.50
2023-01-21T22:09:37.900Z,63.13
2023-01-21T22:12:05.200Z,44.70
2023-01-21T22:14:32.371Z,65.40
2023-01-21T22:17:00.256Z,56.77
2023-01-21T22:19:27.575Z,40.87
2023-01-21T22:21:54.742Z,47.17
2023-01-21T22:24:21.940Z,41.70
2023-01-21T22:26:49.079Z,54.83
2023-01-21T22:29:16.245Z,55.57
2023-01-21T22:31:43.599Z,54.57
2023-01-21T22:34:11.508Z,46.03
2023-01-21T22:36:38.735Z,58.20
2023-01-21T22:39:05.882Z,54.87
2023-01-21T22:41:33.885Z,53.93
2023-01-21T22:44:01.058Z,44.30
2023-01-21T22:46:31.397Z,49.47
2023-01-21T22:48:58.702Z,46.80
2023-01-21T22:51:26.058Z,49.20
2023-01-21T22:53:53.433Z,51.80
2023-01-21T22:56:25.379Z,53.40
2023-01-21T22:58:55.443Z,48.03
2023-01-21T23:01:22.686Z,53.33
2023-01-21T23:03:49.877Z,43.97
2023-01-21T23:06:17.041Z,39.07
2023-01-21T23:08:44.162Z,39.10
2023-01-21T23:11:11.729Z,40.77
2023-01-21T23:13:38.887Z,151.30
2023-01-21T23:16:07.137Z,71.27
2023-01-21T23:18:36.155Z,36.43
2023-01-21T23:21:21.574Z,39.07
2023-01-21T23:23:49.001Z,36.03
2023-01-21T23:26:16.341Z,38.83
2023-01-21T23:28:43.512Z,34.77
2023-01-21T23:31:14.472Z,40.30
2023-01-21T23:33:41.859Z,35.10
2023-01-21T23:36:11.185Z,39.13
2023-01-21T23:38:38.407Z,41.00
2023-01-21T23:41:06.879Z,40.67
2023-01-21T23:43:34.111Z,34.80
2023-01-21T23:46:01.312Z,36.10
2023-01-21T23:48:28.470Z,34.93
2023-01-21T23:50:55.671Z,37.07
2023-01-21T23:53:22.814Z,37.90
2023-01-21T23:55:49.965Z,33.63
2023-01-21T23:58:17.219Z,34.37
